• Join FlightAware (Why Join?)
  • Login
  • US Flag 
10:34AM EDT


 

Airport Tracker/Info


-or-


 

Live Flight TrackerFlight Track Log ✈ EJA370 ✈ 07-May-2013 ✈ KMAF - KTYS

Flight Track Log - Related Links

Times and Time Zones

All times are in EDT time to prevent confusion due to time zone crossing. See the EJA370 flight status page for this flight to view local times or setup timezone preferences in your user account.

Time Position Orientation Groundspeed Altitude Reporting Facility
EDT Latitude Longitude Course Direction KTS MPH feet Rate Location/Type
09:59AM 31.7842 -102.0811 75° East 300 345 11,200  Level Fort Worth Center
10:00AM 31.7864 -101.9639 89° East 335 386 13,300 2,280 Climbing Fort Worth Center
10:01AM 31.7881 -101.8564 89° East 342 394 15,800 2,700 Climbing Fort Worth Center
10:02AM 31.7864 -101.7292 91° East 367 422 18,800 3,000 Climbing Fort Worth Center
10:03AM 31.8092 -101.6081 77° East 372 428 21,800 2,760 Climbing Fort Worth Center
10:04AM 32.1654 -101.4222 75° East  Level FlightAware Approximate
10:04AM 31.8344 -101.4797 77° East 384 442 24,400  Level Fort Worth Center
10:05AM 31.8717 -101.3592 70° East 391 450 27,000 2,100 Climbing Fort Worth Center
10:06AM 31.9169 -101.2386 66° East 396 456 28,600 1,500 Climbing Fort Worth Center
10:07AM 31.9647 -101.1061 67° East 414 476 30,100 1,500 Climbing Fort Worth Center
10:08AM 32.0083 -100.9706 69° East 432 497 31,700 1,500 Climbing Fort Worth Center
10:09AM 32.0539 -100.8400 68° East 432 497 33,200 1,500 Climbing Fort Worth Center
10:10AM 32.1033 -100.7044 67° East 432 497 34,700 1,500 Climbing Fort Worth Center
10:11AM 32.1467 -100.5664 70° East 437 503 36,200 1,500 Climbing Fort Worth Center
10:12AM 32.1958 -100.4306 67° East 437 503 37,700 1,380 Climbing Fort Worth Center
10:13AM 32.2408 -100.2969 68° East 437 503 39,000 1,200 Climbing Fort Worth Center
10:14AM 32.2856 -100.1633 68° East 437 503 40,200 840 Climbing Fort Worth Center
10:15AM 32.3281 -100.0317 69° East 432 497 40,700 360 Climbing Fort Worth Center
10:16AM 32.3744 -99.8978 68° East 432 497 41,000 120 Climbing Fort Worth Center
10:17AM 32.4211 -99.7564 69° East 432 497 41,000  Level Fort Worth Center
10:18AM 32.4694 -99.6172 68° East 448 516 41,000  Level Fort Worth Center
10:19AM 32.5225 -99.4533 69° East 467 537 41,000  Level Fort Worth Center
10:20AM 32.5706 -99.3117 68° East 467 537 41,000  Level Fort Worth Center
10:21AM 32.6186 -99.1694 68° East 467 537 41,000  Level Fort Worth Center
10:22AM 32.6664 -99.0225 69° East 467 537 41,000  Level Fort Worth Center
10:23AM 32.7142 -98.8800 68° East 467 537 41,000  Level Fort Worth Center
10:24AM 32.7594 -98.7375 69° East 467 537 41,000  Level Fort Worth Center
10:25AM 32.8069 -98.5925 69° East 467 537 41,000  Level Fort Worth Center
10:26AM 32.8433 -98.4767 69° East 467 537 41,000  Level Fort Worth Center
10:27AM 32.9011 -98.3067 68° East 461 531 41,000  Level Fort Worth Center
10:28AM 32.9417 -98.1808 69° East 456 525 41,000  Level Fort Worth Center
10:29AM 32.9906 -98.0228 70° East 461 531 41,000  Level Fort Worth Center
10:30AM 33.0350 -97.8942 68° East 461 531 41,000  Level Fort Worth Center
10:31AM 33.0856 -97.7333 69° East 466 536 41,000  Level Fort Worth Center
10:32AM 33.1297 -97.5869 70° East 466 536 41,000  Level Fort Worth Center
10:33AM 33.1717 -97.4531 69° East 466 536 41,000  Level Fort Worth Center
10:34AM 33.2217 -97.2942 69° East 466 536 41,000  Level Fort Worth Center
10:35AM 33.2611 -97.1675 70° East 466 536 41,000  Level Fort Worth Center
10:36AM 33.3128 -97.0058 69° East 466 536 41,000  Level Fort Worth Center
10:37AM 33.3542 -96.8764 69° East 466 536 41,000  Level Fort Worth Center
10:38AM 33.4014 -96.7142 71° East 466 536 41,000  Level Fort Worth Center
10:39AM 33.4442 -96.5669 71° East 471 542 41,000  Level Fort Worth Center
10:40AM 33.4872 -96.4322 69° East 464 534 41,000  Level Fort Worth Center
10:41AM 33.5336 -96.2722 71° East 464 534 41,000  Level Fort Worth Center
10:42AM 33.5722 -96.1394 71° East 464 534 41,000  Level Fort Worth Center
10:43AM 33.6225 -95.9767 70° East 470 541 41,000  Level Fort Worth Center
10:44AM 33.6586 -95.8439 72° East 465 535 41,000  Level Fort Worth Center
10:45AM 33.7025 -95.6958 70° East 465 535 41,000  Level Fort Worth Center
10:46AM 33.7483 -95.5500 69° East 465 535 41,000  Level Fort Worth Center
10:47AM 33.7900 -95.4067 71° East 465 535 41,000  Level Fort Worth Center
10:48AM 33.8336 -95.2581 71° East 465 535 41,000  Level Fort Worth Center
10:49AM 33.8747 -95.1094 72° East 465 535 41,000  Level Fort Worth Center
10:50AM 33.9158 -94.9631 71° East 465 535 41,000  Level Fort Worth Center
10:51AM 33.9589 -94.8217 70° East 465 535 41,000  Level Fort Worth Center
10:52AM 34.0017 -94.6753 71° East 460 529 41,000  Level Fort Worth Center
10:53AM 34.0422 -94.5311 71° East 465 535 41,000  Level Fort Worth Center
10:55AM 34.1414 -94.1817 71° East 456 525 41,000  Level Memphis Center
10:56AM 34.1814 -94.0328 72° East 456 525 41,000  Level Memphis Center
10:57AM 34.2231 -93.8864 71° East 456 525 41,000  Level Memphis Center
10:58AM 34.2600 -93.7572 71° East 456 525 41,000  Level Memphis Center
10:59AM 34.2994 -93.6081 72° East 456 525 41,000  Level Memphis Center
11:00AM 34.3306 -93.4533 76° East 456 525 41,000  Level Memphis Center
11:01AM 34.3633 -93.3061 75° East 456 525 41,000  Level Memphis Center
11:03AM 34.3935 -93.1559 76° East  Level FlightAware Approximate
11:03AM 34.4244 -93.0033 76° East 451 519 41,000  Level Memphis Center
11:04AM 34.4525 -92.8583 77° East 456 525 41,000  Level Memphis Center
11:05AM 34.4844 -92.7081 75° East 451 519 41,000  Level Memphis Center
11:06AM 34.5144 -92.5575 76° East 451 519 41,000  Level Memphis Center
11:07AM 34.5442 -92.4044 77° East 451 519 41,000  Level Memphis Center
11:08AM 34.5717 -92.2539 77° East 451 519 41,000  Level Memphis Center
11:09AM 34.6050 -92.1031 75° East 451 519 41,000  Level Memphis Center
11:10AM 34.6322 -91.9522 78° East 456 525 41,000  Level Memphis Center
11:11AM 34.6653 -91.7989 75° East 456 525 41,000  Level Memphis Center
11:12AM 34.7233 -91.6458 65° Northeast 451 519 41,000  Level Memphis Center
11:13AM 34.7747 -91.5050 66° East 456 525 41,000  Level Memphis Center
11:14AM 34.8303 -91.3614 65° Northeast 461 531 41,000  Level Memphis Center
11:15AM 34.8814 -91.2203 66° East 454 522 41,000  Level Memphis Center
11:16AM 34.9344 -91.0764 66° East 454 522 41,000  Level Memphis Center
11:17AM 34.9769 -90.9300 70° East 459 528 41,000  Level Memphis Center
11:18AM 34.9983 -90.7906 79° East 459 528 41,000  Level Memphis Center
11:19AM 35.0194 -90.6361 80° East 459 528 41,000  Level Memphis Center
11:20AM 35.0428 -90.4789 80° East 464 534 41,000  Level Memphis Center
11:21AM 35.0678 -90.3267 79° East 464 534 41,000  Level Memphis Center
11:22AM 35.0886 -90.1667 81° East 471 542 41,000  Level Memphis Center
11:23AM 35.1153 -89.9967 79° East 466 536 41,000  Level Memphis Center
11:24AM 35.1378 -89.8367 80° East 471 542 41,000  Level Memphis Center
11:25AM 35.1619 -89.6789 79° East 471 542 41,000  Level Memphis Center
11:26AM 35.1819 -89.5211 81° East 464 534 41,000  Level Memphis Center
11:27AM 35.2017 -89.3686 81° East 464 534 41,000  Level Memphis Center
11:28AM 35.2192 -89.2286 81° East 464 534 41,000  Level Memphis Center
11:29AM 35.2406 -89.0706 81° East 464 534 41,000  Level Memphis Center
11:30AM 35.2597 -88.9178 81° East 464 534 41,000  Level Memphis Center
11:31AM 35.2808 -88.7622 81° East 470 541 41,000  Level Memphis Center
11:32AM 35.3017 -88.6067 81° East 470 541 41,000  Level Memphis Center
11:33AM 35.3219 -88.4383 82° East 465 535 41,000  Level Memphis Center
11:34AM 35.3444 -88.2825 80° East 465 535 41,000  Level Memphis Center
11:35AM 35.3647 -88.1242 81° East 465 535 41,000 -300 Level Memphis Center
11:36AM 35.3847 -87.9656 81° East 465 535 40,500 -840 Descending Memphis Center
11:37AM 35.4008 -87.8253 82° East 465 535 39,400 -1,200 Descending Memphis Center
11:38AM 35.4203 -87.6667 81° East 465 535 38,100 -1,200 Descending Memphis Center
11:39AM 35.4397 -87.5081 81° East 472 543 37,100 -600 Descending Memphis Center
11:40AM 35.4569 -87.3519 82° East 465 535 37,000 -60 Descending Memphis Center
11:41AM 35.4758 -87.1931 82° East 470 541 37,000 -300 Level Memphis Center
11:42AM 35.4964 -87.0242 81° East 464 534 36,500 -840 Descending Memphis Center
11:43AM 35.5131 -86.8703 82° East 464 534 35,400 -960 Descending Memphis Center
11:44AM 35.5278 -86.7269 83° East 441 507 34,600 -1,260 Descending Memphis Center
11:45AM 35.5442 -86.5808 82° East 431 496 32,900 -1,620 Descending Memphis Center
11:46AM 35.5625 -86.4267 82° East 440 506 31,400 -1,260 Descending Memphis Center
11:47AM 35.5825 -86.2753 81° East 448 516 30,400 -1,020 Descending Memphis Center
11:48AM 35.5964 -86.1239 84° East 448 516 29,400 -1,200 Descending Memphis Center
11:49AM 35.6122 -85.9825 82° East 438 504 28,000 -1,500 Descending Memphis Center
11:51AM 35.6425 -85.6972 82° East 422 486 25,000 -1,500 Descending Atlanta Center
11:52AM 35.6589 -85.5594 82° East 417 480 23,600 -1,440 Descending Atlanta Center
11:53AM 35.6708 -85.4269 84° East 405 466 22,200 -1,320 Descending Atlanta Center
11:54AM 35.6847 -85.2914 83° East 400 460 21,000 -900 Descending Atlanta Center
11:55AM 35.7006 -85.1639 81° East 389 448 20,500 -1,020 Descending Atlanta Center
11:56AM 35.7206 -85.0414 79° East 376 433 19,000 -1,560 Descending Atlanta Center
11:57AM 35.7403 -84.9164 79° East 371 427 17,400 -1,500 Descending Atlanta Center
11:58AM 35.7619 -84.7936 78° East 371 427 16,000 -1,560 Descending Atlanta Center
11:59AM 35.7814 -84.6761 78° East 371 427 14,300 -1,620 Descending Atlanta Center
12:00PM 35.7986 -84.5714 79° East 359 413 12,800 -1,560 Descending Atlanta Center
12:01PM 35.8156 -84.4561 80° East 346 398 11,200 -1,680 Descending Atlanta Center
12:02PM 35.8325 -84.3539 78° East 326 375 9,500 -1,920 Descending Atlanta Center
12:03PM 35.8475 -84.2642 78° East 290 334 7,400 -2,100 Descending Atlanta Center
12:04PM 35.8581 -84.1797 81° East 265 305 5,400 -1,800 Descending Atlanta Center
12:05PM 35.8642 -84.0978 85° East 251 289 3,900 -1,380 Descending Atlanta Center
12:06PM 35.8664 -84.0183 88° East 237 273 2,700 -1,140 Descending Atlanta Center
12:07PM 35.8433 -83.9619 117° Southeast 186 214 1,700 -900 Descending Atlanta Center
12:08PM 35.8164 -83.9850 215° Southwest 92 106 900 -840 Descending Atlanta Center